createdAt,value
2019-03-19T00:08:33.135Z,11.67
2019-03-19T00:13:54.076Z,11.49
2019-03-19T00:18:55.411Z,10.69
2019-03-19T00:23:56.370Z,10.68
2019-03-19T00:28:47.670Z,10.69
2019-03-19T00:33:47.672Z,10.33
2019-03-19T00:38:58.990Z,9.98
2019-03-19T00:49:03.371Z,10.03
2019-03-19T00:54:03.546Z,10.86
2019-03-19T00:58:50.798Z,11.15
2019-03-19T01:04:10.785Z,11.71
2019-03-19T01:09:11.908Z,12.55
2019-03-19T01:19:13.964Z,10.33
2019-03-19T01:24:01.068Z,11.44
2019-03-19T01:29:09.365Z,11.82
2019-03-19T01:34:30.427Z,11.30
2019-03-19T01:39:31.514Z,11.07
2019-03-19T01:44:19.629Z,11.40
2019-03-19T01:49:27.952Z,10.01
2019-03-19T01:54:35.270Z,11.37
2019-03-19T01:59:55.412Z,11.38
2019-03-19T02:04:56.481Z,10.85
2019-03-19T02:09:56.815Z,15.13
2019-03-19T02:14:44.055Z,12.77
2019-03-19T02:19:51.290Z,14.23
2019-03-19T02:24:59.540Z,11.88
2019-03-19T02:30:19.815Z,11.85
2019-03-19T02:35:07.950Z,14.37
2019-03-19T02:40:28.121Z,11.36
2019-03-19T02:45:28.291Z,11.58
2019-03-19T02:50:28.355Z,11.47
2019-03-19T02:55:16.560Z,14.06
2019-03-19T03:00:23.869Z,11.94
2019-03-19T03:05:32.128Z,11.63
2019-03-19T03:10:52.702Z,12.07
2019-03-19T03:15:39.814Z,11.70
2019-03-19T03:20:59.164Z,11.31
2019-03-19T03:26:10.283Z,11.35
2019-03-19T03:31:10.704Z,10.67
2019-03-19T03:35:57.803Z,11.25
2019-03-19T03:41:19.206Z,10.54
2019-03-19T03:46:07.429Z,12.43
2019-03-19T03:51:14.875Z,11.45
2019-03-19T03:56:35.994Z,13.19
2019-03-19T04:01:23.438Z,15.16
2019-03-19T04:06:43.446Z,14.52
2019-03-19T04:11:44.543Z,16.28
2019-03-19T04:16:32.627Z,16.95
2019-03-19T04:21:53.812Z,16.27
2019-03-19T04:26:54.749Z,17.32
2019-03-19T04:31:55.985Z,18.19
2019-03-19T04:36:43.271Z,16.06
2019-03-19T04:42:03.541Z,17.19
2019-03-19T04:46:51.655Z,16.87
2019-03-19T04:51:59.939Z,17.40
2019-03-19T04:57:26.710Z,15.37
2019-03-19T05:02:07.733Z,13.71
2019-03-19T05:07:14.838Z,15.78
2019-03-19T05:12:23.112Z,15.83
2019-03-19T05:17:43.278Z,17.72
2019-03-19T05:22:35.623Z,17.19
2019-03-19T05:27:37.753Z,15.29
2019-03-19T05:32:41.045Z,14.91
2019-03-19T05:37:49.236Z,18.24
2019-03-19T05:43:09.318Z,16.29
2019-03-19T05:48:10.307Z,18.21
2019-03-19T05:53:11.606Z,17.24
2019-03-19T05:57:58.890Z,18.38
2019-03-19T06:03:19.153Z,20.23
2019-03-19T06:08:06.390Z,19.72
2019-03-19T06:13:13.663Z,21.28
2019-03-19T06:18:21.878Z,21.71
2019-03-19T06:23:42.037Z,21.80
2019-03-19T06:28:30.350Z,23.74
2019-03-19T06:38:46.272Z,22.01
2019-03-19T06:44:06.498Z,19.12
2019-03-19T06:49:06.617Z,21.17
2019-03-19T06:53:54.015Z,20.69
2019-03-19T06:59:01.117Z,20.25
2019-03-19T07:04:22.200Z,17.97
2019-03-19T07:09:23.306Z,19.57
2019-03-19T07:14:10.787Z,21.37
2019-03-19T07:19:31.931Z,20.46
2019-03-19T07:24:19.355Z,19.57
2019-03-19T07:29:26.492Z,18.06
2019-03-19T07:34:47.753Z,20.13
2019-03-19T07:39:47.930Z,18.91
2019-03-19T07:44:48.123Z,20.81
2019-03-19T07:49:48.138Z,20.34
2019-03-19T07:54:36.498Z,21.60
2019-03-19T07:59:56.634Z,22.10
2019-03-19T08:04:44.036Z,21.56
2019-03-19T08:09:51.176Z,22.82
2019-03-19T08:14:59.568Z,22.16
2019-03-19T08:20:06.667Z,21.37
2019-03-19T08:25:27.945Z,19.75
2019-03-19T08:30:15.233Z,20.25
2019-03-19T08:35:22.687Z,19.85
2019-03-19T08:40:29.913Z,19.02
2019-03-19T08:45:38.174Z,18.15
2019-03-19T08:50:58.329Z,15.85
2019-03-19T08:55:45.730Z,15.39
2019-03-19T09:00:52.904Z,16.42
2019-03-19T09:06:01.110Z,15.68
2019-03-19T09:16:14.863Z,12.77
2019-03-19T09:21:35.857Z,12.65
2019-03-19T09:26:24.203Z,11.26
2019-03-19T09:31:31.415Z,11.63
2019-03-19T09:36:39.732Z,11.38
2019-03-19T09:46:50.641Z,12.58
2019-03-19T09:52:10.751Z,12.85
2019-03-19T09:56:58.095Z,12.04
2019-03-19T10:02:06.256Z,11.66
2019-03-19T10:07:27.274Z,10.18
2019-03-19T10:12:28.269Z,9.81
2019-03-19T10:17:29.381Z,10.30
2019-03-19T10:22:17.703Z,9.50
2019-03-19T10:27:28.317Z,7.53
2019-03-19T10:32:25.953Z,6.31
2019-03-19T10:37:38.868Z,6.50
2019-03-19T10:42:36.071Z,6.59
2019-03-19T10:47:44.317Z,5.59
2019-03-19T10:52:51.605Z,6.75
2019-03-19T10:57:58.859Z,5.22
2019-03-19T11:03:07.133Z,4.73
2019-03-19T11:13:28.215Z,4.55
2019-03-19T11:18:29.311Z,3.36
2019-03-19T11:23:30.434Z,3.22
2019-03-19T11:28:30.744Z,3.73
2019-03-19T11:33:30.845Z,3.15
2019-03-19T11:38:18.254Z,3.37
2019-03-19T11:43:25.503Z,3.66
2019-03-19T11:48:32.839Z,4.40
2019-03-19T11:53:52.971Z,3.48
2019-03-19T11:58:40.925Z,3.45
2019-03-19T12:04:01.148Z,4.18
2019-03-19T12:08:49.391Z,5.37
2019-03-19T12:13:57.516Z,9.10
2019-03-19T12:19:18.989Z,10.08
2019-03-19T12:24:06.325Z,8.02
2019-03-19T12:29:26.872Z,7.54
2019-03-19T12:34:13.956Z,7.48
2019-03-19T12:39:22.286Z,7.09
2019-03-19T12:44:43.133Z,7.27
2019-03-19T12:49:44.323Z,7.87
2019-03-19T12:59:35.325Z,8.66
2019-03-19T13:04:42.519Z,8.32
2019-03-19T13:09:49.765Z,8.08
2019-03-19T13:15:13.821Z,8.11
2019-03-19T13:20:14.165Z,8.09
2019-03-19T13:25:01.399Z,9.49
2019-03-19T13:30:09.698Z,5.67
2019-03-19T13:35:29.669Z,3.89
2019-03-19T13:40:30.997Z,3.43
2019-03-19T13:45:32.108Z,2.33
2019-03-19T13:50:20.443Z,2.30
2019-03-19T13:55:41.506Z,1.95
2019-03-19T14:00:28.800Z,2.08
2019-03-19T14:05:37.250Z,2.42
2019-03-19T14:10:58.554Z,2.51
2019-03-19T14:15:58.680Z,2.36
2019-03-19T14:20:58.874Z,2.45
2019-03-19T14:25:58.988Z,2.55
2019-03-19T14:31:08.419Z,2.46
2019-03-19T14:35:46.544Z,2.54
2019-03-19T14:40:54.711Z,1.86
2019-03-19T14:46:02.998Z,1.99
2019-03-19T14:51:23.256Z,2.24
2019-03-19T15:01:19.309Z,2.99
2019-03-19T15:06:34.244Z,3.04
2019-03-19T15:11:23.362Z,3.00
2019-03-19T15:21:44.366Z,3.33
2019-03-19T15:26:45.561Z,2.85
2019-03-19T15:31:45.917Z,3.16
2019-03-19T15:36:45.857Z,2.41
2019-03-19T15:41:47.141Z,2.49
2019-03-19T15:46:34.402Z,3.13
2019-03-19T15:51:54.778Z,2.36
2019-03-19T15:56:55.926Z,2.12
2019-03-19T16:01:44.337Z,1.58
2019-03-19T16:07:04.716Z,1.66
2019-03-19T16:12:04.900Z,2.07
2019-03-19T16:17:04.921Z,2.00
2019-03-19T16:22:06.036Z,1.50
2019-03-19T16:27:06.307Z,2.12
2019-03-19T16:32:06.412Z,1.67
2019-03-19T16:37:07.500Z,1.73
2019-03-19T16:42:07.643Z,1.49
2019-03-19T16:47:08.707Z,1.73
2019-03-19T16:52:09.742Z,1.37
2019-03-19T16:57:10.857Z,1.00
2019-03-19T17:07:14.691Z,0.81
2019-03-19T17:12:03.139Z,1.32
2019-03-19T17:17:11.315Z,1.06
2019-03-19T17:22:18.854Z,1.07
2019-03-19T17:27:39.030Z,1.05
2019-03-19T17:32:26.316Z,0.72
2019-03-19T17:37:47.489Z,0.68
2019-03-19T17:42:47.945Z,0.76
2019-03-19T17:47:48.142Z,0.61
2019-03-19T17:52:48.418Z,0.72
2019-03-19T17:57:35.728Z,0.60
2019-03-19T18:02:43.304Z,0.54
2019-03-19T18:08:03.450Z,0.47
2019-03-19T18:13:03.651Z,0.60
2019-03-19T18:18:04.606Z,0.66
2019-03-19T18:22:53.082Z,0.49
2019-03-19T18:28:14.090Z,0.53
2019-03-19T18:33:15.385Z,0.35
2019-03-19T18:38:15.514Z,0.53
2019-03-19T18:43:16.520Z,0.57
2019-03-19T18:48:17.646Z,1.15
2019-03-19T18:53:04.912Z,1.00
2019-03-19T19:03:30.155Z,1.47
2019-03-19T19:08:17.376Z,2.54
2019-03-19T19:13:37.743Z,1.75
2019-03-19T19:18:38.671Z,1.73
2019-03-19T19:23:40.036Z,2.17
2019-03-19T19:28:40.229Z,2.18
2019-03-19T19:33:40.498Z,2.03
2019-03-19T19:38:27.758Z,2.13
2019-03-19T19:43:48.050Z,2.58
2019-03-19T19:48:48.075Z,3.10
2019-03-19T19:53:49.176Z,3.26
2019-03-19T19:58:50.168Z,2.84
2019-03-19T20:03:51.274Z,2.44
2019-03-19T20:08:39.348Z,2.84
2019-03-19T20:18:48.364Z,2.13
2019-03-19T20:23:55.671Z,2.25
2019-03-19T20:29:03.545Z,2.21
2019-03-19T20:34:24.929Z,2.28
2019-03-19T20:39:12.513Z,2.37
2019-03-19T20:44:19.911Z,1.90
2019-03-19T20:49:47.589Z,1.98
2019-03-19T20:54:27.374Z,1.92
2019-03-19T20:59:35.589Z,1.81
2019-03-19T21:09:59.556Z,1.86
2019-03-19T21:14:46.954Z,1.76
2019-03-19T21:19:54.239Z,1.89
2019-03-19T21:30:02.489Z,2.02
2019-03-19T21:35:22.834Z,2.22
2019-03-19T21:40:10.911Z,2.39
2019-03-19T21:45:30.244Z,2.00
2019-03-19T21:50:31.314Z,1.97
2019-03-19T21:55:31.443Z,2.27
2019-03-19T22:00:32.595Z,2.26
2019-03-19T22:05:19.819Z,2.59
2019-03-19T22:10:40.899Z,2.06
2019-03-19T22:15:41.114Z,2.42
2019-03-19T22:20:42.166Z,2.46
2019-03-19T22:25:31.406Z,2.68
2019-03-19T22:30:41.170Z,2.54
2019-03-19T22:36:01.284Z,2.73
2019-03-19T22:40:49.618Z,3.51
2019-03-19T22:46:09.890Z,3.34
2019-03-19T22:51:10.028Z,3.78
2019-03-19T22:56:10.137Z,3.10
2019-03-19T23:01:11.250Z,3.24
2019-03-19T23:06:11.316Z,4.05
2019-03-19T23:11:12.434Z,3.87
2019-03-19T23:15:59.659Z,2.81
2019-03-19T23:21:07.754Z,2.87
2019-03-19T23:26:15.860Z,2.56
2019-03-19T23:31:36.937Z,2.86
2019-03-19T23:36:37.175Z,3.16
2019-03-19T23:41:26.685Z,3.21
2019-03-19T23:46:34.043Z,3.62
2019-03-19T23:51:41.297Z,4.10
2019-03-19T23:57:01.586Z,3.80
